Time;durP1;ratioP1;P1;durP2;ratioP2;P2;SDS_P1;SDS_P2;PMS_P1;PMS_P2;Temp;Humidity;BMP_temperature;BMP_pressure;BME280_temperature;BME280_humidity;BME280_pressure;Samples;Min_cycle;Max_cycle;Signal;HPM_P1;HPM_P2
2023/07/22 00:00:59;;;;;;;4.13;2.00;;;13.00;18.80;;;;;;5032549;28;20183;-72
2023/07/22 00:03:24;;;;;;;2.70;1.73;;;13.00;18.70;;;;;;5033298;28;20253;-72
2023/07/22 00:06:06;;;;;;;4.17;2.20;;;13.00;18.70;;;;;;5032174;28;20207;-70
2023/07/22 00:08:32;;;;;;;3.20;1.90;;;13.00;18.80;;;;;;5033567;28;20199;-71
2023/07/22 00:10:58;;;;;;;2.67;1.80;;;13.00;18.80;;;;;;5033536;28;20483;-70
2023/07/22 00:13:23;;;;;;;4.80;2.03;;;13.00;18.70;;;;;;5033181;28;20414;-71
2023/07/22 00:15:50;;;;;;;4.67;2.30;;;13.00;18.80;;;;;;5033228;28;20179;-72
2023/07/22 00:18:16;;;;;;;3.43;1.67;;;13.00;19.00;;;;;;5033364;28;20191;-71
2023/07/22 00:20:41;;;;;;;3.80;2.47;;;13.00;19.00;;;;;;5033151;28;20471;-71
2023/07/22 00:23:07;;;;;;;2.30;1.77;;;13.00;18.80;;;;;;5033011;28;20501;-72
2023/07/22 00:25:32;;;;;;;4.13;2.23;;;13.00;19.10;;;;;;5033132;28;20218;-71
2023/07/22 00:27:58;;;;;;;3.70;1.90;;;13.00;19.60;;;;;;5033216;28;20298;-73
2023/07/22 00:30:25;;;;;;;2.90;1.40;;;13.00;19.10;;;;;;5033101;28;20187;-73
2023/07/22 00:32:50;;;;;;;3.20;1.97;;;13.00;19.10;;;;;;5032864;28;20173;-72
2023/07/22 00:35:16;;;;;;;4.43;2.77;;;12.90;19.50;;;;;;5033090;28;20417;-72
2023/07/22 00:37:41;;;;;;;3.20;1.80;;;12.90;19.40;;;;;;5032958;28;20225;-72
2023/07/22 00:40:11;;;;;;;3.00;1.43;;;13.00;19.50;;;;;;5032990;28;20676;-71
2023/07/22 00:42:37;;;;;;;3.27;2.23;;;13.00;19.00;;;;;;5032599;28;20198;-71
2023/07/22 00:45:03;;;;;;;4.60;2.40;;;13.00;19.20;;;;;;5032697;28;20541;-72
2023/07/22 00:47:29;;;;;;;4.30;2.03;;;13.00;19.70;;;;;;5032705;28;20434;-71
2023/07/22 00:49:55;;;;;;;2.90;2.13;;;12.90;19.40;;;;;;5032732;28;20491;-71
2023/07/22 00:52:21;;;;;;;2.90;2.20;;;12.90;19.70;;;;;;5031090;28;20540;-70
2023/07/22 00:54:47;;;;;;;2.50;1.63;;;12.90;19.50;;;;;;5032736;28;20410;-70
2023/07/22 00:57:12;;;;;;;2.83;1.60;;;12.90;19.50;;;;;;5032509;28;20194;-70
2023/07/22 00:59:40;;;;;;;3.20;1.77;;;12.90;19.70;;;;;;5032590;28;20646;-71
2023/07/22 01:02:06;;;;;;;7.30;2.10;;;12.90;19.80;;;;;;5032291;28;20171;-70
2023/07/22 01:04:34;;;;;;;2.83;2.20;;;12.90;19.80;;;;;;5032404;28;20409;-71
2023/07/22 01:07:00;;;;;;;2.70;1.53;;;12.90;20.30;;;;;;5032486;28;20996;-71
2023/07/22 01:09:25;;;;;;;3.80;2.37;;;12.90;20.30;;;;;;5032377;28;20437;-70
2023/07/22 01:11:51;;;;;;;2.77;1.67;;;12.80;20.30;;;;;;5031958;28;20422;-71
2023/07/22 01:14:16;;;;;;;2.97;2.37;;;12.80;20.70;;;;;;5032166;28;20665;-71
2023/07/22 01:16:42;;;;;;;3.63;2.63;;;12.80;20.30;;;;;;5032359;28;20185;-71
2023/07/22 01:19:10;;;;;;;3.33;1.83;;;12.70;20.60;;;;;;5032320;28;20206;-71
2023/07/22 01:21:37;;;;;;;6.13;2.80;;;12.70;20.50;;;;;;5031962;28;20266;-71
2023/07/22 01:24:02;;;;;;;2.90;1.77;;;12.80;20.50;;;;;;5032159;28;20418;-71
2023/07/22 01:26:28;;;;;;;3.97;1.67;;;12.70;20.30;;;;;;5031876;28;20465;-71
2023/07/22 01:29:02;;;;;;;6.60;1.90;;;12.70;20.90;;;;;;5031977;28;20210;-71
2023/07/22 01:31:28;;;;;;;2.80;1.97;;;12.70;20.90;;;;;;5031766;28;20181;-71
2023/07/22 01:33:54;;;;;;;4.70;2.20;;;12.70;21.00;;;;;;5032049;28;20422;-71
2023/07/22 01:36:19;;;;;;;4.50;1.77;;;12.70;20.90;;;;;;5031964;28;20615;-71
2023/07/22 01:38:45;;;;;;;4.03;2.30;;;12.60;21.30;;;;;;5031763;28;20268;-71
2023/07/22 01:41:11;;;;;;;3.87;3.10;;;12.70;21.20;;;;;;5031808;28;20175;-71
2023/07/22 01:43:36;;;;;;;4.30;1.77;;;12.60;21.50;;;;;;5030220;28;20440;-71
2023/07/22 01:46:02;;;;;;;3.13;2.07;;;12.60;21.50;;;;;;5031621;28;20308;-71
2023/07/22 01:48:28;;;;;;;2.87;2.00;;;12.60;21.60;;;;;;5031822;28;20218;-72
2023/07/22 01:50:53;;;;;;;3.47;2.00;;;12.60;21.70;;;;;;5030303;28;20283;-72
2023/07/22 01:53:20;;;;;;;2.20;1.50;;;12.60;21.70;;;;;;5031461;28;20416;-70
2023/07/22 01:55:45;;;;;;;3.57;2.10;;;12.60;21.80;;;;;;5031566;28;20202;-71
2023/07/22 01:58:11;;;;;;;3.97;2.00;;;12.60;21.60;;;;;;5032045;28;20550;-72
2023/07/22 02:00:37;;;;;;;3.03;2.30;;;12.60;22.00;;;;;;5031450;28;20183;-71
2023/07/22 02:03:03;;;;;;;3.97;1.90;;;12.50;22.30;;;;;;5031216;28;20181;-71
2023/07/22 02:05:30;;;;;;;3.00;1.87;;;12.50;22.00;;;;;;5031431;28;20194;-71
2023/07/22 02:07:56;;;;;;;3.90;2.30;;;12.50;22.00;;;;;;5031464;28;20438;-72
2023/07/22 02:10:21;;;;;;;4.23;2.13;;;12.50;22.50;;;;;;5031480;28;20441;-70
2023/07/22 02:12:47;;;;;;;4.50;2.00;;;12.40;23.00;;;;;;5031300;28;20179;-70
2023/07/22 02:15:12;;;;;;;3.10;1.67;;;12.40;23.00;;;;;;5032152;28;20183;-69
2023/07/22 02:17:38;;;;;;;3.30;1.73;;;12.40;22.90;;;;;;5032114;28;20206;-68
2023/07/22 02:20:04;;;;;;;2.40;1.60;;;12.40;23.00;;;;;;5030304;28;20198;-68
2023/07/22 02:22:30;;;;;;;4.53;2.37;;;12.50;23.10;;;;;;5030058;28;20194;-69
2023/07/22 02:24:55;;;;;;;2.87;1.93;;;12.40;22.90;;;;;;5033753;28;20813;-68
2023/07/22 02:27:21;;;;;;;3.43;2.00;;;12.40;23.20;;;;;;5037201;28;20211;-68
2023/07/22 02:29:47;;;;;;;3.33;2.30;;;12.40;23.00;;;;;;5036741;28;20171;-68
2023/07/22 02:32:12;;;;;;;3.40;2.50;;;12.40;22.90;;;;;;5035829;28;20194;-68
2023/07/22 02:34:38;;;;;;;5.60;1.90;;;12.40;23.40;;;;;;5036132;28;20530;-68
2023/07/22 02:37:04;;;;;;;2.30;1.50;;;12.40;23.80;;;;;;5036380;28;20199;-68
2023/07/22 02:39:30;;;;;;;3.13;1.97;;;12.30;23.70;;;;;;5036622;28;20195;-68
2023/07/22 02:41:55;;;;;;;4.93;2.10;;;12.30;24.10;;;;;;5036002;28;20773;-68
2023/07/22 02:44:21;;;;;;;2.73;2.00;;;12.30;24.20;;;;;;5036058;28;20566;-69
2023/07/22 02:46:46;;;;;;;3.20;2.10;;;12.20;24.10;;;;;;5035897;28;20202;-68
2023/07/22 02:49:12;;;;;;;4.20;2.00;;;12.20;24.10;;;;;;5035622;28;20200;-69
2023/07/22 02:51:37;;;;;;;3.97;2.40;;;12.20;24.10;;;;;;5035438;28;20702;-68
2023/07/22 02:54:03;;;;;;;3.40;1.83;;;12.20;24.40;;;;;;5035939;28;20175;-69
2023/07/22 02:56:29;;;;;;;3.17;2.00;;;12.10;24.60;;;;;;5036617;28;20253;-69
2023/07/22 02:58:54;;;;;;;4.00;2.17;;;12.10;25.40;;;;;;5035958;28;20676;-69
2023/07/22 03:01:20;;;;;;;3.20;2.37;;;12.10;25.50;;;;;;5036473;28;20235;-69
2023/07/22 03:03:45;;;;;;;2.90;1.87;;;12.10;25.40;;;;;;5035887;28;20254;-68
2023/07/22 03:06:11;;;;;;;5.47;3.70;;;12.00;25.60;;;;;;5035958;28;20679;-68
2023/07/22 03:08:37;;;;;;;2.50;1.83;;;12.00;25.90;;;;;;5035940;28;20355;-68
2023/07/22 03:11:03;;;;;;;2.80;1.77;;;11.90;26.80;;;;;;5034518;28;20184;-68
2023/07/22 03:13:29;;;;;;;3.27;1.90;;;11.90;26.50;;;;;;5035411;28;20461;-69
2023/07/22 03:15:55;;;;;;;3.50;1.70;;;11.90;26.80;;;;;;5036017;28;20558;-69
2023/07/22 03:18:21;;;;;;;3.63;2.10;;;11.80;27.00;;;;;;5035589;28;20496;-69
2023/07/22 03:20:46;;;;;;;3.37;1.53;;;11.80;27.10;;;;;;5035519;28;20874;-69
2023/07/22 03:23:12;;;;;;;3.80;1.87;;;11.80;28.00;;;;;;5034737;28;20178;-69
2023/07/22 03:25:37;;;;;;;4.10;2.20;;;11.80;27.50;;;;;;5034983;28;20290;-69
2023/07/22 03:28:05;;;;;;;5.43;2.40;;;11.70;27.90;;;;;;5035261;28;20229;-68
2023/07/22 03:30:30;;;;;;;3.30;2.13;;;11.70;27.60;;;;;;5034875;28;20172;-69
2023/07/22 03:32:57;;;;;;;3.87;2.00;;;11.70;27.90;;;;;;5034720;28;20955;-68
2023/07/22 03:35:22;;;;;;;3.63;2.20;;;11.60;27.80;;;;;;5034622;28;20591;-68
2023/07/22 03:37:48;;;;;;;2.93;2.03;;;11.60;27.80;;;;;;5034362;28;20520;-68
2023/07/22 03:40:20;;;;;;;3.47;2.30;;;11.60;27.80;;;;;;5034681;28;20186;-68
2023/07/22 03:42:49;;;;;;;4.50;2.20;;;11.70;27.70;;;;;;5034021;28;20173;-69
2023/07/22 03:45:16;;;;;;;3.60;2.30;;;11.60;27.70;;;;;;5034306;28;20813;-68
2023/07/22 03:47:43;;;;;;;2.70;1.40;;;11.60;27.10;;;;;;5034166;28;20431;-68
2023/07/22 03:50:09;;;;;;;5.77;2.70;;;11.60;27.80;;;;;;5034617;28;20493;-68
2023/07/22 03:52:34;;;;;;;4.30;2.07;;;11.50;27.80;;;;;;5033993;28;20404;-69
2023/07/22 03:55:00;;;;;;;3.20;1.83;;;11.50;28.60;;;;;;5034319;28;20712;-69
2023/07/22 03:57:29;;;;;;;2.53;1.80;;;11.50;29.00;;;;;;5033608;28;20286;-68
2023/07/22 03:59:55;;;;;;;3.30;2.20;;;11.50;27.90;;;;;;5033635;28;20260;-69
2023/07/22 04:02:21;;;;;;;3.63;2.23;;;11.50;28.80;;;;;;5033471;28;20785;-68
2023/07/22 04:04:47;;;;;;;6.77;2.50;;;11.60;28.10;;;;;;5033537;28;20455;-69
2023/07/22 04:07:12;;;;;;;3.50;1.90;;;11.60;27.90;;;;;;5033614;28;20425;-69
2023/07/22 04:09:38;;;;;;;3.93;2.10;;;11.60;28.10;;;;;;5033862;28;20492;-69
2023/07/22 04:12:04;;;;;;;3.40;2.17;;;11.60;28.60;;;;;;5033332;28;20201;-69
2023/07/22 04:14:30;;;;;;;3.37;2.00;;;11.70;27.90;;;;;;5033805;28;20412;-69
2023/07/22 04:16:55;;;;;;;4.20;2.60;;;11.80;28.00;;;;;;5033669;28;20457;-69
2023/07/22 04:19:21;;;;;;;4.60;2.40;;;12.00;26.80;;;;;;5033805;28;20199;-69
2023/07/22 04:21:46;;;;;;;2.90;1.90;;;12.00;26.40;;;;;;5033461;28;20175;-69
2023/07/22 04:24:12;;;;;;;4.67;2.80;;;12.00;25.70;;;;;;5033603;28;20182;-69
2023/07/22 04:26:37;;;;;;;4.10;2.43;;;12.10;25.50;;;;;;5033156;28;20210;-69
2023/07/22 04:29:03;;;;;;;4.70;2.17;;;12.10;25.00;;;;;;5033280;28;20197;-71
2023/07/22 04:31:29;;;;;;;3.50;2.23;;;12.20;24.10;;;;;;5033066;28;20173;-69
2023/07/22 04:33:54;;;;;;;3.73;1.87;;;12.30;24.20;;;;;;5033277;28;20184;-70
2023/07/22 04:36:20;;;;;;;4.03;2.10;;;12.40;24.10;;;;;;5033375;28;20182;-70
2023/07/22 04:38:45;;;;;;;4.03;2.23;;;12.50;23.20;;;;;;5033480;28;20199;-70
2023/07/22 04:41:11;;;;;;;5.00;2.20;;;12.50;22.70;;;;;;5033226;28;20178;-71
2023/07/22 04:43:36;;;;;;;3.77;2.60;;;12.50;22.70;;;;;;5032735;28;20253;-70
2023/07/22 04:46:02;;;;;;;4.73;2.80;;;12.50;22.40;;;;;;5032979;28;20201;-70
2023/07/22 04:48:27;;;;;;;4.20;1.93;;;12.60;22.30;;;;;;5032345;28;20192;-70
2023/07/22 04:50:53;;;;;;;3.50;2.20;;;12.70;22.20;;;;;;5032910;28;20532;-70
2023/07/22 04:53:19;;;;;;;2.40;1.77;;;12.70;21.90;;;;;;5032631;28;20265;-70
2023/07/22 04:55:44;;;;;;;3.20;2.40;;;12.70;21.20;;;;;;5032838;28;20257;-70
2023/07/22 04:58:10;;;;;;;4.97;1.90;;;12.80;20.50;;;;;;5032459;28;20451;-70
2023/07/22 05:00:39;;;;;;;4.17;1.80;;;12.90;20.40;;;;;;5033230;28;20183;-69
2023/07/22 05:03:05;;;;;;;4.47;2.13;;;12.90;20.40;;;;;;5032853;28;20652;-69
2023/07/22 05:05:32;;;;;;;3.50;2.40;;;12.90;20.30;;;;;;5032851;28;20460;-70
2023/07/22 05:07:57;;;;;;;3.17;2.10;;;13.00;20.40;;;;;;5032828;28;20800;-69
2023/07/22 05:10:23;;;;;;;2.50;1.80;;;13.00;20.40;;;;;;5033024;28;20406;-69
2023/07/22 05:12:48;;;;;;;3.67;1.93;;;13.10;20.50;;;;;;5032694;28;20380;-69
2023/07/22 05:15:15;;;;;;;4.10;2.37;;;13.20;20.60;;;;;;5031540;28;20179;-70
2023/07/22 05:17:41;;;;;;;3.40;1.83;;;13.40;20.70;;;;;;5032183;28;20199;-71
2023/07/22 05:20:09;;;;;;;3.73;2.37;;;13.50;19.20;;;;;;5032115;28;20491;-71
2023/07/22 05:22:35;;;;;;;3.70;1.80;;;13.70;19.10;;;;;;5030479;28;20476;-71
2023/07/22 05:25:01;;;;;;;3.37;2.33;;;13.90;17.50;;;;;;5031931;28;20540;-71
2023/07/22 05:27:27;;;;;;;4.63;1.97;;;14.00;16.70;;;;;;5031977;28;21044;-70
2023/07/22 05:29:52;;;;;;;3.37;2.30;;;14.20;15.90;;;;;;5032120;28;20168;-70
2023/07/22 05:32:18;;;;;;;3.53;2.00;;;14.40;14.90;;;;;;5031617;28;20578;-70
2023/07/22 05:34:43;;;;;;;2.87;1.83;;;15.00;13.10;;;;;;5031905;28;20569;-71
2023/07/22 05:37:09;;;;;;;4.33;2.30;;;17.00;8.70;;;;;;5031944;28;20597;-70
2023/07/22 05:39:34;;;;;;;2.20;1.50;;;19.60;1.00;;;;;;5031815;28;20268;-71
2023/07/22 05:42:00;;;;;;;2.70;2.50;;;21.70;1.00;;;;;;5031598;28;20672;-70
2023/07/22 05:44:25;;;;;;;4.13;3.77;;;23.70;1.00;;;;;;5031842;28;20175;-71
2023/07/22 05:46:51;;;;;;;4.83;3.83;;;24.90;1.00;;;;;;5031814;28;20688;-70
2023/07/22 05:49:17;;;;;;;4.20;3.90;;;26.40;1.00;;;;;;5031601;28;20681;-70
2023/07/22 05:51:45;;;;;;;3.63;3.37;;;27.20;1.00;;;;;;5031397;28;20645;-70
2023/07/22 05:54:11;;;;;;;4.50;4.20;;;28.30;1.00;;;;;;5031639;28;20238;-69
2023/07/22 05:56:36;;;;;;;4.33;4.00;;;30.00;1.00;;;;;;5031537;28;20422;-70
2023/07/22 05:59:02;;;;;;;4.93;4.63;;;31.20;1.00;;;;;;5030549;28;21061;-71
2023/07/22 06:01:28;;;;;;;4.70;4.40;;;32.50;1.00;;;;;;5031218;28;20262;-72
2023/07/22 06:03:53;;;;;;;4.80;4.50;;;32.30;1.00;;;;;;5031344;28;20207;-69
2023/07/22 06:06:19;;;;;;;4.63;4.33;;;33.40;1.00;;;;;;5031739;28;20351;-71
2023/07/22 06:08:44;;;;;;;5.57;5.07;;;33.80;1.00;;;;;;5031235;28;20648;-70
2023/07/22 06:11:10;;;;;;;5.40;5.07;;;33.50;1.00;;;;;;5031480;28;20167;-70
2023/07/22 06:13:35;;;;;;;5.73;5.33;;;34.20;1.00;;;;;;5031238;28;20183;-69
2023/07/22 06:16:03;;;;;;;5.30;5.00;;;34.80;1.00;;;;;;5031396;28;20186;-70
2023/07/22 06:18:29;;;;;;;6.10;5.70;;;35.30;1.00;;;;;;5031701;28;20210;-70
2023/07/22 06:20:54;;;;;;;5.83;5.33;;;33.60;1.00;;;;;;5031292;28;20916;-70
2023/07/22 06:23:20;;;;;;;5.57;5.17;;;33.90;1.00;;;;;;5031159;28;20172;-71
2023/07/22 06:25:46;;;;;;;5.17;4.87;;;34.50;1.00;;;;;;5031271;28;20661;-70
2023/07/22 06:28:11;;;;;;;5.80;5.40;;;34.40;1.00;;;;;;5031357;28;20568;-71
2023/07/22 06:30:37;;;;;;;5.47;5.07;;;34.20;1.00;;;;;;5029860;28;20182;-70
2023/07/22 06:33:02;;;;;;;4.97;4.63;;;33.80;1.00;;;;;;5030983;28;20179;-71
2023/07/22 06:35:28;;;;;;;5.17;4.87;;;35.00;1.00;;;;;;5031331;28;20527;-70
2023/07/22 06:37:53;;;;;;;5.50;5.10;;;35.50;1.00;;;;;;5031127;28;20205;-70
2023/07/22 06:40:19;;;;;;;5.87;5.47;;;34.70;1.00;;;;;;5031361;28;20187;-71
2023/07/22 06:42:45;;;;;;;5.60;5.10;;;34.20;1.00;;;;;;5031065;28;20171;-70
2023/07/22 06:45:10;;;;;;;5.37;4.90;;;34.50;1.00;;;;;;5031046;28;20199;-70
2023/07/22 06:47:36;;;;;;;5.50;5.20;;;35.20;1.00;;;;;;5031142;28;20199;-70
2023/07/22 06:50:04;;;;;;;5.30;4.90;;;35.70;1.00;;;;;;5031147;28;20589;-70
2023/07/22 06:52:30;;;;;;;5.40;5.00;;;35.50;1.00;;;;;;5030485;28;20222;-69
2023/07/22 06:54:55;;;;;;;4.97;4.67;;;34.60;1.00;;;;;;5030806;28;20406;-70
2023/07/22 06:57:21;;;;;;;5.73;5.33;;;34.90;1.00;;;;;;5031296;28;20430;-69
2023/07/22 06:59:47;;;;;;;5.53;5.13;;;35.40;1.00;;;;;;5031035;28;20192;-68
2023/07/22 07:02:12;;;;;;;5.03;4.73;;;35.50;1.00;;;;;;5030647;28;20198;-70
2023/07/22 07:04:38;;;;;;;5.57;5.00;;;36.60;1.00;;;;;;5030590;28;20595;-71
2023/07/22 07:07:04;;;;;;;4.83;4.53;;;36.90;1.00;;;;;;5030722;28;20178;-70
2023/07/22 07:09:29;;;;;;;5.57;5.17;;;36.20;1.00;;;;;;5030746;28;20183;-71
2023/07/22 07:11:56;;;;;;;6.40;5.80;;;35.70;1.00;;;;;;5033574;28;20425;-70
2023/07/22 07:14:23;;;;;;;5.63;4.90;;;36.50;1.00;;;;;;5034577;28;20190;-70
2023/07/22 07:16:49;;;;;;;5.77;5.37;;;36.70;1.00;;;;;;5034661;28;20727;-70
2023/07/22 07:19:15;;;;;;;5.57;5.17;;;36.40;1.00;;;;;;5035079;28;20529;-70
2023/07/22 07:21:40;;;;;;;5.00;4.70;;;38.00;1.00;;;;;;5034613;28;20176;-70
2023/07/22 07:24:06;;;;;;;4.87;4.50;;;36.70;1.00;;;;;;5035035;28;20183;-70
2023/07/22 07:26:31;;;;;;;5.37;4.97;;;36.60;1.00;;;;;;5034661;28;20673;-71
2023/07/22 07:28:57;;;;;;;5.40;5.00;;;36.60;1.00;;;;;;5034669;28;20715;-71
2023/07/22 07:31:22;;;;;;;4.83;4.53;;;37.60;1.00;;;;;;5034661;28;20541;-71
2023/07/22 07:33:48;;;;;;;5.57;5.17;;;36.60;1.00;;;;;;5034688;28;20683;-72
2023/07/22 07:36:14;;;;;;;4.90;4.60;;;37.10;1.00;;;;;;5034341;28;20211;-71
2023/07/22 07:38:40;;;;;;;4.70;4.40;;;36.80;1.00;;;;;;5034406;28;20199;-71
2023/07/22 07:41:08;;;;;;;4.60;4.30;;;37.60;1.00;;;;;;5034109;28;20418;-71
2023/07/22 07:43:34;;;;;;;5.40;4.90;;;37.10;1.00;;;;;;5034182;28;20233;-72
2023/07/22 07:46:23;;;;;;;5.07;4.77;;;37.70;1.00;;;;;;5034015;28;20461;-69
2023/07/22 07:49:06;;;;;;;4.80;4.50;;;38.20;1.00;;;;;;5034134;28;20441;-70
2023/07/22 07:51:32;;;;;;;4.87;4.57;;;37.20;1.00;;;;;;5034190;28;20504;-71
2023/07/22 07:53:59;;;;;;;4.70;4.40;;;37.70;1.00;;;;;;5034159;28;20489;-71
2023/07/22 07:56:32;;;;;;;5.10;4.70;;;37.40;1.00;;;;;;5034464;28;20175;-71
2023/07/22 07:58:58;;;;;;;3.93;3.67;;;37.60;1.00;;;;;;5034200;28;20807;-71
2023/07/22 08:01:24;;;;;;;4.50;4.20;;;38.60;1.00;;;;;;5032279;28;20421;-70
2023/07/22 08:03:49;;;;;;;4.50;4.20;;;37.70;1.00;;;;;;5034161;28;20179;-74
2023/07/22 08:06:15;;;;;;;4.50;4.20;;;37.10;1.00;;;;;;5027990;28;20211;-72
2023/07/22 08:08:41;;;;;;;4.53;4.23;;;36.90;1.00;;;;;;5029101;28;20530;-72
2023/07/22 08:11:08;;;;;;;4.57;4.13;;;36.90;1.00;;;;;;5031513;28;20177;-69
2023/07/22 08:13:35;;;;;;;4.80;4.50;;;36.30;1.00;;;;;;5013396;28;20634;-69
2023/07/22 08:16:03;;;;;;;4.90;4.40;;;37.00;1.00;;;;;;5014766;28;20409;-72
2023/07/22 08:18:28;;;;;;;4.40;4.10;;;37.50;1.00;;;;;;5033117;28;20465;-70
2023/07/22 08:20:55;;;;;;;4.00;3.80;;;36.50;1.00;;;;;;5032636;28;20450;-70
2023/07/22 08:23:21;;;;;;;4.40;4.10;;;36.80;1.00;;;;;;5030112;28;20179;-69
2023/07/22 08:25:47;;;;;;;4.70;4.40;;;35.20;1.00;;;;;;5032924;28;20795;-70
2023/07/22 08:28:13;;;;;;;6.13;4.53;;;35.70;1.00;;;;;;5032813;28;20294;-70
2023/07/22 08:30:40;;;;;;;4.80;4.50;;;36.60;1.00;;;;;;5033030;28;20412;-70
2023/07/22 08:33:07;;;;;;;4.30;4.10;;;36.60;1.00;;;;;;5032809;28;20259;-70
2023/07/22 08:35:34;;;;;;;4.67;4.37;;;37.30;1.00;;;;;;5031267;28;20437;-70
2023/07/22 08:38:01;;;;;;;6.80;4.70;;;36.70;1.00;;;;;;5032802;28;20434;-70
2023/07/22 08:40:28;;;;;;;4.73;4.43;;;36.90;1.00;;;;;;5032777;28;20920;-70
2023/07/22 08:42:55;;;;;;;4.43;4.13;;;37.80;1.00;;;;;;5032380;28;20418;-72
2023/07/22 08:45:21;;;;;;;4.80;4.50;;;37.60;1.00;;;;;;5032617;28;20465;-70
2023/07/22 08:47:48;;;;;;;4.53;4.13;;;38.50;1.00;;;;;;5032527;28;20477;-70
2023/07/22 08:50:22;;;;;;;4.97;4.67;;;40.20;1.00;;;;;;5032815;28;20746;-70
2023/07/22 08:52:48;;;;;;;3.73;3.53;;;38.30;1.00;;;;;;5032279;28;20419;-71
2023/07/22 08:55:14;;;;;;;4.97;4.50;;;35.10;1.00;;;;;;5032437;28;20422;-72
2023/07/22 08:57:41;;;;;;;4.20;3.90;;;33.40;1.00;;;;;;5032249;28;20632;-71
2023/07/22 09:00:09;;;;;;;4.50;4.20;;;33.30;1.00;;;;;;5029645;28;20422;-70
2023/07/22 09:02:35;;;;;;;4.50;4.10;;;33.80;1.00;;;;;;5012309;28;20421;-72
2023/07/22 09:05:02;;;;;;;3.90;3.70;;;36.50;1.00;;;;;;5022312;28;20505;-69
2023/07/22 09:07:28;;;;;;;3.63;3.43;;;35.90;1.00;;;;;;5030786;28;20453;-70
2023/07/22 09:09:57;;;;;;;4.07;3.87;;;35.40;1.00;;;;;;5028290;28;20939;-72
2023/07/22 09:12:24;;;;;;;5.40;5.00;;;35.40;1.00;;;;;;5032047;28;20529;-71
2023/07/22 09:14:50;;;;;;;4.30;4.10;;;35.20;1.00;;;;;;5032215;28;20421;-70
2023/07/22 09:17:16;;;;;;;4.90;4.40;;;35.00;1.00;;;;;;5031772;28;20417;-70
2023/07/22 09:19:41;;;;;;;4.00;3.80;;;33.10;1.00;;;;;;5031757;28;20468;-71
2023/07/22 09:22:10;;;;;;;4.47;4.07;;;32.10;1.00;;;;;;5031854;28;20167;-71
2023/07/22 09:24:35;;;;;;;4.70;4.40;;;29.90;1.00;;;;;;5031990;28;20702;-71
2023/07/22 09:27:01;;;;;;;4.33;4.07;;;28.70;1.00;;;;;;5032096;28;20438;-71
2023/07/22 09:29:39;;;;;;;3.90;3.60;;;27.70;1.00;;;;;;5031965;28;20262;-71
2023/07/22 09:32:05;;;;;;;4.20;3.90;;;27.70;1.00;;;;;;5031757;28;20541;-71
2023/07/22 09:34:31;;;;;;;4.20;3.90;;;27.30;1.00;;;;;;5031854;28;20440;-70
2023/07/22 09:37:00;;;;;;;4.20;3.90;;;27.00;1.00;;;;;;5031528;28;20440;-70
2023/07/22 09:39:26;;;;;;;4.10;3.90;;;26.90;1.00;;;;;;5031616;28;20514;-70
2023/07/22 09:41:54;;;;;;;4.47;4.17;;;26.70;1.00;;;;;;5033198;28;20465;-72
2023/07/22 09:44:20;;;;;;;4.27;4.03;;;26.40;1.00;;;;;;5034225;28;20240;-70
2023/07/22 09:46:49;;;;;;;3.83;3.63;;;26.50;1.00;;;;;;5033855;28;20465;-71
2023/07/22 09:49:17;;;;;;;4.50;4.20;;;26.20;1.00;;;;;;5032069;28;20666;-71
2023/07/22 09:51:43;;;;;;;4.30;4.00;;;25.80;1.00;;;;;;5032841;28;20437;-70
2023/07/22 09:54:09;;;;;;;4.50;4.10;;;25.50;1.00;;;;;;5032335;28;20414;-71
2023/07/22 09:56:49;;;;;;;4.30;4.00;;;25.40;1.00;;;;;;5031406;28;20802;-69
2023/07/22 09:59:17;;;;;;;3.73;3.53;;;25.60;1.00;;;;;;5030990;28;20269;-70
2023/07/22 10:01:45;;;;;;;3.97;3.67;;;25.60;1.00;;;;;;5030977;28;20480;-70
2023/07/22 10:04:15;;;;;;;4.70;4.40;;;26.10;1.00;;;;;;5031051;28;20410;-70
2023/07/22 10:06:42;;;;;;;5.47;4.27;;;26.40;1.00;;;;;;5031088;28;20826;-71
2023/07/22 10:09:12;;;;;;;4.07;3.87;;;26.30;1.00;;;;;;5028059;28;20447;-71
2023/07/22 10:11:39;;;;;;;4.20;4.00;;;26.50;1.00;;;;;;5030879;28;20414;-71
2023/07/22 10:14:05;;;;;;;4.60;4.20;;;26.40;1.00;;;;;;5031298;28;20745;-71
2023/07/22 10:16:31;;;;;;;4.40;4.10;;;26.60;1.00;;;;;;5029826;28;20441;-70
2023/07/22 10:18:58;;;;;;;4.77;4.10;;;26.30;1.00;;;;;;5031237;28;20888;-70
2023/07/22 10:21:25;;;;;;;5.03;4.63;;;26.00;1.00;;;;;;5031274;28;20417;-69
2023/07/22 10:23:51;;;;;;;4.20;3.90;;;26.10;1.00;;;;;;5031180;28;20842;-69
2023/07/22 10:26:18;;;;;;;4.57;4.20;;;25.90;1.00;;;;;;5030832;28;20493;-68
2023/07/22 10:28:46;;;;;;;4.20;3.90;;;25.90;1.00;;;;;;5031054;28;20870;-69
2023/07/22 10:31:13;;;;;;;4.07;3.63;;;25.80;1.00;;;;;;5030956;28;20448;-69
2023/07/22 10:33:39;;;;;;;4.33;4.03;;;25.90;1.00;;;;;;5031026;28;20513;-69
2023/07/22 10:36:07;;;;;;;4.60;4.30;;;26.30;1.00;;;;;;5030931;28;20505;-68
2023/07/22 10:38:37;;;;;;;4.30;4.00;;;26.80;1.00;;;;;;5030914;28;20444;-68
2023/07/22 10:41:16;;;;;;;4.50;4.20;;;27.00;1.00;;;;;;5030869;28;20788;-70
2023/07/22 10:43:54;;;;;;;4.20;3.90;;;26.90;1.00;;;;;;5030807;28;20422;-71
2023/07/22 10:46:32;;;;;;;3.70;3.40;;;27.10;1.00;;;;;;5032993;28;20461;-68
2023/07/22 10:49:13;;;;;;;3.90;3.70;;;27.30;1.00;;;;;;5034790;28;20441;-73
2023/07/22 10:51:39;;;;;;;5.13;4.60;;;27.50;1.00;;;;;;5034651;28;20484;-72
2023/07/22 10:54:35;;;;;;;4.10;3.90;;;28.10;1.00;;;;;;5034862;28;20417;-73
2023/07/22 10:57:26;;;;;;;4.30;4.00;;;28.10;1.00;;;;;;5028419;28;20480;-71
2023/07/22 10:59:52;;;;;;;4.00;3.80;;;27.60;1.00;;;;;;5033329;28;20453;-72
2023/07/22 11:02:28;;;;;;;3.90;3.70;;;27.40;1.00;;;;;;5032897;28;20460;-71
2023/07/22 11:05:05;;;;;;;4.60;4.20;;;27.40;1.00;;;;;;5034764;28;20418;-72
2023/07/22 11:07:32;;;;;;;4.40;4.10;;;27.40;1.00;;;;;;5034348;28;20955;-72
2023/07/22 11:09:58;;;;;;;4.50;4.20;;;27.70;1.00;;;;;;5034921;28;20888;-70
2023/07/22 11:12:25;;;;;;;4.53;4.23;;;28.00;1.00;;;;;;5034239;28;20410;-70
2023/07/22 11:14:53;;;;;;;4.27;3.87;;;28.20;1.00;;;;;;5034387;28;20622;-72
2023/07/22 11:17:29;;;;;;;4.17;3.90;;;28.40;1.00;;;;;;5034576;28;20421;-72
2023/07/22 11:19:55;;;;;;;4.10;3.80;;;27.80;1.00;;;;;;5034471;28;20487;-72
2023/07/22 11:22:21;;;;;;;4.40;4.10;;;27.80;1.00;;;;;;5034078;28;20922;-71
2023/07/22 11:24:47;;;;;;;4.43;4.17;;;27.90;1.00;;;;;;5034152;28;20414;-72
2023/07/22 11:27:12;;;;;;;4.50;4.20;;;27.30;1.00;;;;;;5034232;28;20180;-70
2023/07/22 11:29:39;;;;;;;4.43;4.13;;;26.80;1.00;;;;;;5034297;28;20171;-70
2023/07/22 11:32:05;;;;;;;4.60;4.30;;;26.60;1.00;;;;;;5033844;28;20167;-70
2023/07/22 11:34:31;;;;;;;6.27;4.53;;;26.40;1.00;;;;;;5034065;28;20413;-72
2023/07/22 11:36:58;;;;;;;4.90;4.23;;;26.30;1.00;;;;;;5032403;28;20417;-73
2023/07/22 11:39:25;;;;;;;4.60;4.20;;;26.50;1.00;;;;;;5034102;28;20247;-73
2023/07/22 11:41:51;;;;;;;4.67;4.27;;;26.50;1.00;;;;;;5033837;28;20468;-71
2023/07/22 11:44:19;;;;;;;4.80;4.40;;;26.70;1.00;;;;;;5034185;28;20460;-69
2023/07/22 11:47:01;;;;;;;4.17;3.87;;;26.70;1.00;;;;;;5033570;28;20549;-69
2023/07/22 11:49:30;;;;;;;5.17;4.53;;;26.90;1.00;;;;;;5033885;28;20495;-69
2023/07/22 11:52:00;;;;;;;4.90;4.40;;;27.70;1.00;;;;;;5033771;28;20417;-69
2023/07/22 11:54:27;;;;;;;5.33;4.57;;;28.20;1.00;;;;;;5033728;28;20479;-68
2023/07/22 11:56:53;;;;;;;4.10;3.90;;;28.40;1.00;;;;;;5032645;28;20911;-69
2023/07/22 11:59:33;;;;;;;4.50;4.20;;;28.10;1.00;;;;;;5033322;28;20508;-68
2023/07/22 12:02:01;;;;;;;4.30;4.03;;;28.00;1.00;;;;;;5033009;28;20558;-69
2023/07/22 12:04:26;;;;;;;4.53;4.23;;;27.50;1.00;;;;;;5032244;28;20430;-69
2023/07/22 12:06:52;;;;;;;5.53;4.73;;;27.70;1.00;;;;;;5033451;28;21040;-69
2023/07/22 12:09:17;;;;;;;4.70;4.40;;;27.60;1.00;;;;;;5033568;28;20207;-68
2023/07/22 12:11:43;;;;;;;6.10;5.50;;;27.30;1.00;;;;;;5033764;28;20183;-69
2023/07/22 12:14:13;;;;;;;4.37;4.00;;;27.20;1.00;;;;;;5033491;28;20198;-71
2023/07/22 12:16:40;;;;;;;5.57;5.17;;;27.50;1.00;;;;;;5033455;28;20549;-72
2023/07/22 12:19:09;;;;;;;4.00;3.70;;;27.90;1.00;;;;;;5033623;28;20440;-71
2023/07/22 12:21:35;;;;;;;4.60;4.20;;;28.00;1.00;;;;;;5033041;28;20476;-69
2023/07/22 12:24:01;;;;;;;5.50;5.00;;;28.20;1.00;;;;;;5033325;28;20418;-70
2023/07/22 12:26:27;;;;;;;4.27;3.97;;;28.40;1.00;;;;;;5033215;28;20469;-70
2023/07/22 12:28:53;;;;;;;4.60;4.30;;;28.70;1.00;;;;;;5033074;28;20939;-68
2023/07/22 12:31:18;;;;;;;4.23;4.00;;;29.00;1.00;;;;;;5033088;28;20415;-71
2023/07/22 12:33:45;;;;;;;4.50;4.20;;;29.00;1.00;;;;;;5032970;28;20409;-71
2023/07/22 12:36:10;;;;;;;4.47;4.17;;;28.90;1.00;;;;;;5033393;28;20187;-68
2023/07/22 12:38:36;;;;;;;4.83;4.47;;;29.00;1.00;;;;;;5032860;28;20774;-71
2023/07/22 12:41:02;;;;;;;5.27;4.87;;;28.80;1.00;;;;;;5033001;28;20183;-71
2023/07/22 12:43:27;;;;;;;4.53;4.23;;;28.80;1.00;;;;;;5031325;28;20549;-69
2023/07/22 12:45:53;;;;;;;4.33;4.03;;;28.60;1.00;;;;;;5032665;28;20465;-69
2023/07/22 12:48:19;;;;;;;5.53;5.00;;;28.60;1.00;;;;;;5032725;28;20249;-69
2023/07/22 12:50:45;;;;;;;4.70;4.40;;;27.50;1.00;;;;;;5032667;28;20186;-69